الصفحة الرئيسية
METAR-TAF:

METAR-TAF

مطار :

أورسك, روسيا

دائرة عرض: 51-04-18N, خط طول: 058-35-48E, ارتفاع: 277 متر

مراقبة الطقس الحالي

تاريخ ووقت الإصدار 59 دقيقة قبل الساعة 11:00UTC
ريح 14 عقدة من الغرب تتزايد حتى 23 عقدة
درجة الحرارة 31°درجة مئوية
الرطوبة 22%
ضغط 1019 hPa
الرؤية 10 كم أو أكثر
الغيوم لا تقل 1500 م ولا وجود لمزنة ركامية السحاب الأسود

METAR: UWOR 241100Z 28007G12MPS CAVOK 31/07 Q1019 R25/CLRD65 NOSIG RMK QFE741/0988

زمن: 16:59 (11:59 UTC)

توقعات

تاريخ ووقت الإصدار 1ساعة و 1 دقيقة قبل الساعة 10:58UTC
التوقعات صالحة من24 الساعة 12 UTC إلى 24 الساعة 21 UTC
ريح 12 عقدة من الغرب تتزايد حتى 23 عقدة
الرؤية 10 كم أو أكثر
غيوم متفرقة على ارتفاع 3300 قدم, مزنة ركامية.
مؤقت
من 24 الساعة 12 UTC إلى 24 الساعة 15 UTC
ريح 23 عقدة من الغرب
الرؤية: 4000 متر
غيوم مفككة على ارتفاع 2000 قدم, مزنة ركامية.
زخات من الأمطار الخفيفة
أصبح
من 24 الساعة 16 UTC إلى 24 الساعة 18 UTC
ريح 8 عقدة من الغرب/الجنوب الغربي تتزايد حتى 19 عقدة

TAF: UWOR 241058Z 2412/2421 26006G12MPS 9999 SCT033CB TEMPO 2412/2415 28012MPS 4000 -SHRA BKN020CB BECMG 2416/2418 25004G10MPS

أرصاد الطقس والتوقعات من أكثر من 4000 مطار (تقارير الطقس للمطار METAR والتنبؤ بالطقس بالمطارTAF).

المحطات المتاحة هي النقط الصفراء والحمراء على الخريطة.

حرك المؤشر فوق النقطة لمعرفة اسم المحطة.

ثم انقر لمعرفة أرصاد وتوقعات الطقس.

لتغيير الخارطة: اضغط على الأزرار الخضراء مع رمز الصليب الأسود للتكبير. على الزر الأخضر مع شرطة للتصغير، أو على الأسهم الخضراء للخرائط المجاورة.


METAR-TAF: